Latest Coastal Weather Observations for Coles Point

IDS60701

Issued at 5:01 am CDT Tuesday 6 December 2016 (issued every 10 minutes, with the page automatically refreshed every 10 minutes)

About coastal observations | Map of coastal stations | Coastal observations for SA | Marine services | Other Formats
Station Details ID: 018191 Name: COLES POINT Lat: -34.37 Lon: 135.37 Height: 28.0 m
Data from the previous 72 hours. | See also: Recent months at Coles Point
Date/Time
CDT
Temp
°C
Wind Pressure Rain since
9am
mm
Weather Cloud Vis
km
Sea
Height
m
Swell
Dir  Spd
kts
Gust
kts
hPa Trend Height
m
Period
s
Dir
06/05:00am 12.5 S 5 7 1015.0 - 0.0 - - - - - - -
06/04:30am 13.3 WSW 1 2 1015.4 - 0.0 - - - - - - -
06/04:00am 13.8 NNE 1 5 1014.6 - 0.0 - - - - - - -
06/03:30am 13.6 NE 4 4 1013.6 - 0.0 - - - - - - -
06/03:00am 13.6 ENE 2 3 1013.4 - 0.0 - - - - - - -
06/02:30am 13.3 ENE 3 4 1013.4 - 0.0 - - - - - - -
06/02:00am 13.2 ENE 6 8 1013.8 - 0.0 - - - - - - -
06/01:30am 13.3 E 5 6 1014.9 - 0.0 - - - - - - -
06/01:00am 13.7 SSW 3 4 1016.4 - 0.0 - - - - - - -
06/12:30am 13.9 SSW 4 6 1017.2 - 0.0 - - - - - - -
06/12:00am 14.0 SSE 5 6 1015.8 - 0.0 - - - - - - -
 
Date/Time
CDT
Temp
°C
Wind Pressure Rain since
9am
mm
Weather Cloud Vis
km
Sea
Height
m
Swell
Dir  Spd
kts
Gust
kts
hPa Trend Height
m
Period
s
Dir
05/11:30pm 14.0 SSE 7 9 1015.3 - 0.0 - - - - - - -
05/11:00pm 14.2 SSE 6 8 1015.3 - 0.0 - - - - - - -
05/10:30pm 14.8 SE 6 8 1015.3 - 0.0 - - - - - - -
05/10:00pm 14.8 SE 5 7 1014.8 - 0.0 - - - - - - -
05/09:30pm 15.5 ESE 6 7 1014.5 - 0.0 - - - - - - -
05/09:00pm 15.9 ESE 4 5 1014.6 - 0.0 - - - - - - -
05/08:30pm 17.2 ESE 6 8 1014.6 - 0.0 - - - - - - -
05/08:00pm 18.3 E 7 9 1014.2 - 0.0 - - - - - - -
05/07:30pm 18.1 S 8 14 1013.8 - 0.0 - - - - - - -
05/07:00pm 18.7 S 11 14 1013.6 - 0.0 - - - - - - -
05/06:30pm 18.7 S 12 16 1012.8 - 0.0 - - - - - - -
05/06:00pm 17.4 S 12 17 1013.1 - 0.0 - - - - - - -
05/05:30pm 18.0 SSW 14 18 1013.8 - 0.0 - - - - - - -
05/05:00pm 18.9 SSW 14 19 1013.2 - 0.0 - - - - - - -
05/04:30pm 19.9 S 13 18 1012.4 - 0.0 - - - - - - -
05/04:00pm 19.7 SSW 11 15 1013.3 - 0.0 - - - - - - -
05/03:30pm 18.9 SSW 10 16 1013.8 - 0.0 - - - - - - -
05/03:00pm 17.6 SSW 11 15 1014.1 - 0.0 - - - - - - -
05/02:30pm 18.1 SW 10 12 1014.8 - 0.0 - - - - - - -
05/02:00pm 18.1 SSW 10 13 1015.2 - 0.0 - - - - - - -
05/01:30pm 18.3 SSW 10 13 1015.5 - 0.0 - - - - - - -
05/01:00pm 18.4 SW 11 14 1015.1 - 0.0 - - - - - - -
05/12:30pm 20.1 SW 11 15 1015.0 - 0.0 - - - - - - -
05/12:00pm 19.5 SW 13 16 1015.1 - 0.0 - - - - - - -
05/11:30am 18.4 SW 12 15 1015.1 - 0.0 - - - - - - -
05/11:00am 19.4 SSW 10 14 1014.7 - 0.0 - - - - - - -
05/10:30am 18.3 SW 10 13 1015.1 - 0.0 - - - - - - -
05/10:00am 18.0 SW 10 13 1015.8 - 0.0 - - - - - - -
05/09:30am 17.9 S 8 13 1015.4 - 0.0 - - - - - - -
05/09:00am 17.4 SSE 9 13 1015.5 - 0.0 - - - - - - -
05/08:30am 16.2 S 8 12 1015.3 - 0.0 - - - - - - -
05/08:00am 15.9 S 9 13 1015.0 - 0.0 - - - - - - -
05/07:30am 15.6 SSE 8 10 1014.7 - 0.0 - - - - - - -
05/07:00am 14.8 SSE 8 11 1014.1 - 0.0 - - - - - - -
05/06:30am 14.4 S 8 12 1013.6 - 0.0 - - - - - - -
05/06:00am 14.3 SSE 5 7 1013.6 - 0.0 - - - - - - -
05/05:30am 13.7 S 6 8 1013.3 - 0.0 - - - - - - -
05/05:00am 13.8 S 6 8 1013.1 - 0.0 - - - - - - -
05/04:30am 14.3 S 6 10 1012.9 - 0.0 - - - - - - -
05/04:00am 14.9 SSW 8 12 1013.0 - 0.0 - - - - - - -
05/03:30am 14.6 SSW 6 9 1012.6 - 0.0 - - - - - - -
05/03:00am 13.9 S 5 7 1012.2 - 0.0 - - - - - - -
05/02:30am 14.8 SSW 7 9 1012.7 - 0.0 - - - - - - -
05/02:00am 15.4 SSW 8 11 1012.4 - 0.0 - - - - - - -
05/01:30am 15.6 SSW 8 12 1012.3 - 0.0 - - - - - - -
05/01:00am 15.5 SSW 10 13 1011.8 - 0.0 - - - - - - -
05/12:30am 15.4 SSW 12 16 1011.9 - 0.0 - - - - - - -
05/12:00am 15.4 SSW 11 15 1011.9 - 0.0 - - - - - - -
 
Date/Time
CDT
Temp
°C
Wind Pressure Rain since
9am
mm
Weather Cloud Vis
km
Sea
Height
m
Swell
Dir  Spd
kts
Gust
kts
hPa Trend Height
m
Period
s
Dir
04/11:30pm 15.6 SSW 10 13 1012.0 - 0.0 - - - - - - -
04/11:00pm 16.0 SSW 13 17 1011.9 - 0.0 - - - - - - -
04/10:30pm 16.1 SSW 13 18 1011.5 - 0.0 - - - - - - -
04/10:00pm 16.5 SSW 12 17 1011.0 - 0.0 - - - - - - -
04/09:30pm 16.5 SW 12 18 1010.5 - 0.0 - - - - - - -
04/09:00pm 17.1 SW 12 17 1010.2 - 0.0 - - - - - - -
04/08:30pm 17.2 SW 12 17 1009.3 - 0.0 - - - - - - -
04/08:00pm 17.6 SW 15 22 1008.7 - 0.0 - - - - - - -
04/07:30pm 18.1 SW 18 23 1008.1 - 0.0 - - - - - - -
04/07:00pm 19.3 SW 18 25 1007.1 - 0.0 - - - - - - -
04/06:30pm 19.7 SW 14 21 1006.6 - 0.0 - - - - - - -
04/06:00pm 21.3 SW 13 17 1005.6 - 0.0 - - - - - - -
04/05:30pm 22.1 WSW 12 15 1005.3 - 0.0 - - - - - - -
04/05:00pm 22.8 W 11 17 1004.8 - 0.0 - - - - - - -
04/04:30pm 25.0 WNW 11 18 1004.1 - 0.0 - - - - - - -
04/04:00pm 25.4 NW 12 18 1003.6 - 0.0 - - - - - - -
04/03:30pm 27.1 NW 13 19 1003.1 - 0.0 - - - - - - -
04/03:00pm 27.4 NW 13 17 1003.2 - 0.0 - - - - - - -
04/02:30pm 27.8 NW 12 18 1003.1 - 0.0 - - - - - - -
04/02:00pm 28.3 NW 14 21 1003.1 - 0.0 - - - - - - -
04/01:30pm 29.4 NW 15 20 1003.0 - 0.0 - - - - - - -
04/01:00pm 29.3 NW 14 22 1002.9 - 0.0 - - - - - - -
04/12:30pm 30.5 NNW 16 22 1003.0 - 0.0 - - - - - - -
04/12:00pm 28.4 NNW 11 15 1003.2 - 0.0 - - - - - - -
04/11:30am 30.9 NNW 13 18 1003.5 - 0.0 - - - - - - -
04/11:00am 28.1 NNW 11 15 1004.4 - 0.0 - - - - - - -
04/10:30am 28.2 NNW 7 11 1004.7 - 0.0 - - - - - - -
04/10:00am 25.6 NNW 8 13 1005.4 - 0.0 - - - - - - -
04/09:30am 26.1 NNW 13 20 1005.3 - 0.0 - - - - - - -
04/09:00am 28.2 NNW 19 28 1004.6 - 0.0 - - - - - - -
04/08:32am 29.1 N 15 26 1004.6 - 0.0 - - - - - - -
04/08:30am 28.9 N 15 22 1004.6 - 0.0 - - - - - - -
04/08:00am 26.1 NNE 11 18 1004.5 - 0.0 - - - - - - -
04/07:30am 21.3 NE 12 13 1004.3 - 0.0 - - - - - - -
04/07:00am 21.3 NE 12 13 1004.7 - 0.0 - - - - - - -
04/06:30am 21.0 NNE 13 15 1004.6 - 0.0 - - - - - - -
04/06:00am 20.2 NNE 12 14 1004.6 - 0.0 - - - - - - -
04/05:30am 19.4 NNE 12 14 1004.7 - 0.0 - - - - - - -
04/05:00am 19.8 NNE 14 16 1004.4 - 0.0 - - - - - - -
04/04:30am 19.2 NNE 12 15 1004.4 - 0.0 - - - - - - -
04/04:00am 19.2 NNE 13 15 1004.4 - 0.0 - - - - - - -
04/03:30am 19.1 NNE 11 14 1004.6 - 0.0 - - - - - - -
04/03:00am 18.8 NNE 13 16 1005.1 - 0.0 - - - - - - -
04/02:30am 18.3 NNE 12 15 1005.5 - 0.0 - - - - - - -
04/02:00am 18.4 NNE 12 16 1005.8 - 0.0 - - - - - - -
04/01:30am 18.7 NNE 13 17 1006.0 - 0.0 - - - - - - -
04/01:00am 18.0 NNE 11 13 1006.4 - 0.0 - - - - - - -
04/12:30am 18.9 NE 13 16 1006.9 - 0.0 - - - - - - -
04/12:00am 18.1 NNE 12 14 1007.8 - 0.0 - - - - - - -
 
Date/Time
CDT
Temp
°C
Wind Pressure Rain since
9am
mm
Weather Cloud Vis
km
Sea
Height
m
Swell
Dir  Spd
kts
Gust
kts
hPa Trend Height
m
Period
s
Dir
03/11:30pm 18.2 NNE 13 16 1008.0 - 0.0 - - - - - - -
03/11:00pm 18.5 NE 14 18 1008.3 - 0.0 - - - - - - -
03/10:30pm 19.1 NNE 15 19 1008.7 - 0.0 - - - - - - -
03/10:00pm 20.6 NE 11 14 1008.5 - 0.0 - - - - - - -
03/09:30pm 21.1 ESE 8 10 1008.2 - 0.0 - - - - - - -
03/09:00pm 20.8 ESE 8 10 1008.5 - 0.0 - - - - - - -
03/08:30pm 22.7 SE 9 11 1008.8 - 0.0 - - - - - - -
03/08:00pm 22.8 SSE 5 8 1009.4 - 0.0 - - - - - - -
03/07:30pm 23.6 S 6 9 1009.9 - 0.0 - - - - - - -
03/07:00pm 24.4 SSW 7 9 1010.0 - 0.0 - - - - - - -
03/06:30pm 24.8 SSW 8 10 1009.9 - 0.0 - - - - - - -
03/06:00pm 25.2 SW 9 12 1009.7 - 0.0 - - - - - - -
03/05:30pm 25.6 SW 8 10 1009.7 - 0.0 - - - - - - -
03/05:00pm 25.8 SW 7 9 1009.7 - 0.0 - - - - - - -
03/04:30pm 25.9 SW 7 8 1010.2 - 0.0 - - - - - - -
03/04:00pm 25.6 SW 8 11 1010.6 - 0.0 - - - - - - -
03/03:30pm 24.7 SW 8 10 1010.8 - 0.0 - - - - - - -
03/03:00pm 24.6 SW 9 11 1010.9 - 0.0 - - - - - - -
03/02:30pm 24.3 SW 8 10 1011.3 - 0.0 - - - - - - -
03/02:00pm 23.5 WSW 9 11 1011.8 - 0.0 - - - - - - -
03/01:30pm 23.2 SW 9 11 1011.8 - 0.0 - - - - - - -
03/01:00pm 23.0 SW 9 12 1012.0 - 0.0 - - - - - - -
03/12:30pm 23.1 SW 9 11 1012.1 - 0.0 - - - - - - -
03/12:00pm 22.3 SW 8 10 1012.4 - 0.0 - - - - - - -
03/11:30am 21.6 SW 7 8 1012.6 - 0.0 - - - - - - -
03/11:00am 20.8 SW 6 8 1012.7 - 0.0 - - - - - - -
03/10:30am 20.3 SW 6 8 1012.9 - 0.0 - - - - - - -
03/10:00am 19.4 SW 8 10 1013.1 - 0.0 - - - - - - -
03/09:30am 19.8 E 6 8 1013.2 - 0.0 - - - - - - -
03/09:00am 18.8 ENE 10 13 1013.3 - 0.0 - - - - - - -
03/08:30am 17.9 ENE 10 13 1013.2 - 0.0 - - - - - - -
03/08:00am 15.9 NE 6 8 1013.1 - 0.0 - - - - - - -
03/07:30am 14.5 E 4 5 1013.3 - 0.0 - - - - - - -
03/07:00am 11.7 ENE 4 5 1013.3 - 0.0 - - - - - - -
03/06:30am 10.5 ENE 4 5 1013.1 - 0.0 - - - - - - -
03/06:00am 11.0 ENE 4 6 1013.0 - 0.0 - - - - - - -
03/05:30am 11.4 NE 6 7 1012.9 - 0.0 - - - - - - -

Other Formats:

Comma delimited format used in spreadsheet applications
http://www.bom.gov.au/fwo/IDS60701/IDS60701.94658.axf

JavaScript Object Notation format (JSON) in row-major order
http://www.bom.gov.au/fwo/IDS60701/IDS60701.94658.json